Terminal Aerodrome Forecast
Issued by NWS

Home | Current Version | Previous Version | Text Only | Print | Product List | Glossary On
Versions: 1 2 3 4 5 6 7 8 9 10 11 12 13 14 15 16 17 18 19
000
FTAK31 PAJN 181123
TAFAJN
TAF
PAJN 181123Z 1812/1912 13004KT P6SM VCSH BKN060 OVC080
      WS020/11035KT
     FM181400 13018G26KT P6SM -RA OVC050 WS020/11045KT
     FM181900 12012KT P6SM -RA BKN030 OVC050
     FM190200 09007KT P6SM VCSH SCT030 OVC050=

USA.gov is the U.S. government's official web portal to all federal, state and local government web resources and services.